Latest Weather Observations for Richmond

IDN60901

Issued at 9:31 am EST Sunday 30 August 2015 (issued every 10 minutes, with the page automatically refreshed every 10 minutes)

About weather observations | Map of Sydney area stations | Latest observations for Sydney area | Other Formats
Station Details ID: 067105 Name: RICHMOND RAAF Lat: -33.60 Lon: 150.78 Height: 19.0 m
Data from the previous 72 hours. | See also: Recent months at Richmond
Date/Time
EST
Tmp

°C
App
Tmp
°C
Dew
Point
°C
Rel
Hum
%
Delta-T

°C
Wind Press
QNH
hPa
Press
MSL
hPa
Rain
since
9 am
mm
Dir
 
Spd
km/h
Gust
km/h
Spd
kts
Gust
kts
30/09:00am 9.8 8.6 4.8 71 2.2 CALM 0 6 0 3 1020.9 1020.9 0.0
30/08:30am 8.0 6.5 4.8 80 1.4 NW 2 6 1 3 1021.0 1021.0 0.0
30/08:00am 6.0 4.0 4.5 90 0.6 NNW 4 6 2 3 1020.9 1020.9 0.0
30/07:30am 5.0 3.0 4.6 97 0.2 NNE 4 6 2 3 1020.9 1020.9 0.0
30/07:00am 3.0 1.4 2.7 98 0.1 CALM 0 0 0 0 1020.5 1020.5 0.0
30/06:30am 2.2 0.5 1.9 98 0.1 CALM 0 0 0 0 1020.2 1020.2 0.0
30/06:22am 1.8 0.0 1.5 98 0.1 CALM 0 0 0 0 1020.1 1020.1 0.0
30/06:18am 1.7 -0.1 1.4 98 0.1 CALM 0 0 0 0 1020.1 1020.1 0.0
30/06:07am 2.0 0.3 1.7 98 0.1 CALM 0 0 0 0 1020.0 1020.0 0.0
30/06:00am 2.3 0.6 2.0 98 0.1 CALM 0 0 0 0 1020.0 1020.0 0.0
30/05:36am 2.5 0.1 2.2 98 0.1 NNW 4 7 2 4 1019.7 1019.7 0.0
30/05:32am 2.7 0.0 2.4 98 0.1 NNW 6 7 3 4 1019.7 1019.7 0.0
30/05:30am 2.7 0.0 2.4 98 0.1 NNW 6 7 3 4 1019.7 1019.7 0.0
30/05:11am 2.5 0.9 2.2 98 0.1 CALM 0 0 0 0 1019.6 1019.6 0.0
30/05:00am 2.4 0.7 2.0 97 0.2 CALM 0 0 0 0 1019.7 1019.7 0.0
30/04:30am 3.2 1.7 2.9 98 0.1 CALM 0 0 0 0 1019.6 1019.6 0.0
30/04:00am 3.6 2.2 3.3 98 0.1 CALM 0 0 0 0 1019.5 1019.5 0.0
30/03:30am 4.0 1.9 3.7 98 0.1 NE 4 6 2 3 1019.6 1019.6 0.0
30/03:00am 3.9 1.3 3.3 96 0.2 E 6 6 3 3 1019.7 1019.7 0.0
30/02:30am 4.1 2.6 3.2 94 0.4 CALM 0 0 0 0 1019.8 1019.8 0.0
30/02:00am 4.2 1.8 2.4 88 0.7 SE 4 6 2 3 1020.2 1020.2 0.0
30/01:30am 4.8 3.3 3.0 88 0.7 CALM 0 0 0 0 1020.6 1020.6 0.0
30/01:00am 5.6 3.1 3.6 87 0.8 NNW 6 9 3 5 1020.9 1020.9 0.0
30/12:30am 5.7 3.2 3.9 88 0.8 N 6 7 3 4 1021.1 1021.1 0.0
30/12:00am 7.3 6.0 3.9 79 1.5 CALM 0 0 0 0 1021.0 1021.0 0.0
 
Date/Time
EST
Tmp

°C
App
Tmp
°C
Dew
Point
°C
Rel
Hum
%
Delta-T

°C
Wind Press
QNH
hPa
Press
MSL
hPa
Rain
since
9 am
mm
Dir
 
Spd
km/h
Gust
km/h
Spd
kts
Gust
kts
29/11:30pm 7.2 4.6 3.4 77 1.6 SE 6 9 3 5 1021.1 1021.1 0.0
29/11:00pm 7.1 5.7 3.5 78 1.5 CALM 0 0 0 0 1021.1 1021.1 0.0
29/10:30pm 7.4 4.3 3.6 77 1.6 SSW 9 13 5 7 1021.0 1021.0 0.0
29/10:00pm 8.4 5.7 3.5 71 2.1 SW 7 11 4 6 1020.9 1020.9 0.0
29/09:30pm 9.0 6.2 3.0 66 2.6 WSW 7 11 4 6 1021.0 1021.0 0.0
29/09:00pm 10.4 8.2 3.4 62 3.0 S 4 7 2 4 1021.0 1021.0 0.0
29/08:30pm 11.1 8.5 3.2 58 3.5 SW 6 9 3 5 1020.7 1020.7 0.0
29/08:00pm 12.7 9.8 2.8 51 4.3 SSW 7 9 4 5 1020.2 1020.2 0.0
29/07:30pm 12.5 9.4 3.5 54 4.0 WSW 9 11 5 6 1019.7 1019.7 0.0
29/07:00pm 13.0 9.8 3.1 51 4.4 W 9 13 5 7 1019.3 1019.3 0.0
29/06:30pm 13.4 9.8 3.2 50 4.6 W 11 15 6 8 1018.9 1018.9 0.0
29/06:00pm 14.3 9.9 2.9 46 5.1 W 15 17 8 9 1018.4 1018.4 0.0
29/05:30pm 16.1 11.4 2.9 41 6.0 WSW 17 24 9 13 1018.1 1018.1 0.0
29/05:00pm 17.7 12.4 2.8 37 6.8 WSW 20 28 11 15 1017.9 1017.9 0.0
29/04:30pm 18.7 13.2 2.1 33 7.6 WSW 20 30 11 16 1017.6 1017.6 0.0
29/04:00pm 19.3 13.0 1.8 31 8.0 W 24 30 13 16 1017.6 1017.6 0.0
29/03:30pm 20.0 15.2 2.8 32 8.0 WNW 17 26 9 14 1017.5 1017.5 0.0
29/03:00pm 19.6 16.8 5.3 39 7.0 S 9 15 5 8 1017.5 1017.5 0.0
29/02:30pm 18.9 16.3 4.3 38 7.0 E 7 15 4 8 1017.8 1017.8 0.0
29/02:00pm 18.7 16.0 5.5 42 6.4 SSE 9 17 5 9 1018.2 1018.2 0.0
29/01:30pm 18.5 15.9 6.0 44 6.2 SE 9 15 5 8 1018.6 1018.6 0.0
29/01:00pm 18.0 15.2 5.2 43 6.2 NNE 9 15 5 8 1019.2 1019.2 0.0
29/12:30pm 17.4 15.8 6.3 48 5.5 W 4 9 2 5 1019.8 1019.8 0.0
29/12:00pm 17.6 15.3 7.4 51 5.1 NE 9 13 5 7 1020.5 1020.5 0.0
29/11:30am 16.6 14.0 6.1 50 5.1 E 9 17 5 9 1021.0 1021.0 0.0
29/11:00am 16.3 13.4 6.7 53 4.7 NNE 11 17 6 9 1021.5 1021.5 0.0
29/10:30am 15.6 13.2 6.9 56 4.3 NNE 9 13 5 7 1021.8 1021.8 0.0
29/10:00am 14.3 11.7 6.2 58 3.9 NNE 9 13 5 7 1022.1 1022.1 0.0
29/09:30am 12.9 10.7 8.0 72 2.4 NNE 9 11 5 6 1022.5 1022.5 0.0
29/09:00am 11.3 9.4 7.6 78 1.8 NE 7 9 4 5 1022.8 1022.8 0.0
29/08:30am 9.6 8.6 7.2 85 1.1 WNW 2 6 1 3 1023.1 1023.1 0.0
29/08:00am 8.6 6.5 6.6 87 0.9 N 7 9 4 5 1023.2 1023.2 0.0
29/07:30am 7.8 6.1 7.5 98 0.1 NE 6 7 3 4 1023.0 1023.0 0.0
29/07:00am 5.8 3.6 5.5 98 0.1 NE 6 7 3 4 1022.8 1022.8 0.0
29/06:49am 5.0 2.7 4.7 98 0.1 NE 6 7 3 4 1022.7 1022.7 0.0
29/06:30am 4.1 2.7 3.8 98 0.1 CALM 0 0 0 0 1022.6 1022.6 0.0
29/06:27am 4.4 3.1 4.1 98 0.1 CALM 0 0 0 0 1022.6 1022.6 0.0
29/06:21am 4.5 3.2 4.2 98 0.1 CALM 0 0 0 0 1022.6 1022.6 0.0
29/06:08am 3.9 2.5 3.6 98 0.1 CALM 0 0 0 0 1022.5 1022.5 0.0
29/06:00am 4.0 2.6 3.7 98 0.1 CALM 0 0 0 0 1022.4 1022.4 0.0
29/05:58am 3.9 2.5 3.6 98 0.1 CALM 0 0 0 0 1022.4 1022.4 0.0
29/05:56am 3.6 2.2 3.3 98 0.1 CALM 0 0 0 0 1022.4 1022.4 0.0
29/05:42am 4.1 2.7 3.8 98 0.1 CALM 0 0 0 0 1022.3 1022.3 0.0
29/05:30am 4.5 3.2 4.2 98 0.1 CALM 0 0 0 0 1022.3 1022.3 0.0
29/05:00am 4.5 3.2 4.2 98 0.1 CALM 0 0 0 0 1022.3 1022.3 0.0
29/04:40am 4.5 3.2 4.2 98 0.1 CALM 0 0 0 0 1022.3 1022.3 0.0
29/04:30am 4.8 3.6 4.5 98 0.1 CALM 0 0 0 0 1022.2 1022.2 0.0
29/04:15am 4.8 3.6 4.5 98 0.1 CALM 0 0 0 0 1022.1 1022.1 0.0
29/04:13am 5.0 3.8 4.7 98 0.1 CALM 0 0 0 0 1022.1 1022.1 0.0
29/04:04am 4.8 3.6 4.5 98 0.1 CALM 0 0 0 0 1022.1 1022.1 0.0
29/04:00am 4.8 3.6 4.5 98 0.1 CALM 0 0 0 0 1022.1 1022.1 0.0
29/03:30am 5.5 4.4 5.2 98 0.1 CALM 0 0 0 0 1022.0 1022.0 0.0
29/03:12am 5.4 4.3 5.1 98 0.1 CALM 0 0 0 0 1022.1 1022.1 0.0
29/03:05am 5.8 4.8 5.5 98 0.1 CALM 0 0 0 0 1022.1 1022.1 0.0
29/03:02am 5.8 4.4 5.5 98 0.1 S 2 6 1 3 1022.1 1022.1 0.0
29/03:00am 5.9 4.5 5.6 98 0.1 S 2 6 1 3 1022.2 1022.2 0.0
29/02:59am 5.9 4.5 5.5 97 0.2 S 2 6 1 3 1022.2 1022.2 0.0
29/02:30am 7.3 5.5 7.0 98 0.1 E 6 7 3 4 1022.4 1022.4 0.0
29/02:00am 7.2 6.4 6.5 95 0.3 CALM 0 0 0 0 1022.7 1022.7 0.0
29/01:30am 7.0 6.1 5.9 93 0.5 CALM 0 0 0 0 1022.7 1022.7 0.0
29/01:00am 7.9 7.2 7.1 95 0.4 CALM 0 0 0 0 1022.8 1022.8 0.0
29/12:30am 8.5 7.7 6.5 87 0.9 CALM 0 0 0 0 1022.9 1022.9 0.0
29/12:00am 8.6 6.9 5.9 83 1.2 W 4 7 2 4 1023.0 1023.0 0.0
 
Date/Time
EST
Tmp

°C
App
Tmp
°C
Dew
Point
°C
Rel
Hum
%
Delta-T

°C
Wind Press
QNH
hPa
Press
MSL
hPa
Rain
since
9 am
mm
Dir
 
Spd
km/h
Gust
km/h
Spd
kts
Gust
kts
28/11:30pm 9.6 7.8 7.2 85 1.1 ESE 6 7 3 4 1023.0 1023.0 0.0
28/11:00pm 9.3 7.6 6.0 80 1.5 WSW 4 9 2 5 1023.0 1023.0 0.0
28/10:30pm 10.2 8.2 6.4 77 1.8 W 6 7 3 4 1023.0 1023.0 0.0
28/10:00pm 11.1 10.3 6.5 73 2.2 CALM 0 0 0 0 1023.1 1023.1 0.0
28/09:30pm 11.8 10.8 5.7 66 2.8 CALM 0 0 0 0 1023.1 1023.1 0.0
28/09:00pm 12.9 10.2 5.6 61 3.4 SW 9 13 5 7 1022.7 1022.7 0.0
28/08:30pm 13.8 11.2 6.2 60 3.6 SSW 9 11 5 6 1022.5 1022.5 0.0
28/08:00pm 13.9 10.8 7.2 64 3.3 SW 13 17 7 9 1022.2 1022.2 0.0
28/07:30pm 14.0 11.9 8.4 69 2.8 SW 9 15 5 8 1021.8 1021.8 0.0
28/07:00pm 13.6 11.9 8.2 70 2.7 SSW 7 9 4 5 1021.4 1021.4 0.0
28/06:30pm 14.2 12.3 7.5 64 3.3 W 7 11 4 6 1020.9 1020.9 0.0
28/06:00pm 15.8 13.9 6.8 55 4.4 WSW 6 7 3 4 1020.5 1020.5 0.0
28/05:30pm 16.9 15.0 6.7 51 5.0 SW 6 7 3 4 1020.2 1020.2 0.0
28/05:00pm 17.4 15.4 6.9 50 5.2 SW 7 11 4 6 1019.9 1019.9 0.0
28/04:30pm 18.5 16.1 7.0 47 5.8 SSW 9 13 5 7 1019.7 1019.7 0.0
28/04:00pm 18.5 15.2 6.4 45 6.0 SSE 13 17 7 9 1019.5 1019.5 0.0
28/03:30pm 18.5 15.2 6.4 45 6.0 S 13 17 7 9 1019.3 1019.3 0.0
28/03:00pm 18.5 15.3 6.7 46 5.9 SSW 13 17 7 9 1019.2 1019.2 0.0
28/02:30pm 18.8 14.7 6.0 43 6.3 SW 17 24 9 13 1019.0 1019.0 0.0
28/02:00pm 18.7 15.7 5.9 43 6.3 SW 11 17 6 9 1018.8 1018.8 0.0
28/01:30pm 19.3 16.3 6.1 42 6.5 SW 11 20 6 11 1018.8 1018.8 0.0
28/01:00pm 19.1 14.7 4.8 39 6.9 SW 17 28 9 15 1019.1 1019.1 0.0
28/12:30pm 18.6 14.4 5.5 42 6.4 SSW 17 28 9 15 1019.5 1019.5 0.0
28/12:00pm 18.1 15.0 5.7 44 6.0 WSW 11 20 6 11 1019.9 1019.9 0.0
28/11:30am 18.3 14.1 5.8 44 6.1 WSW 17 24 9 13 1020.1 1020.1 0.0
28/11:00am 18.1 13.3 5.7 44 6.0 WSW 20 30 11 16 1020.4 1020.4 0.0
28/10:30am 17.3 12.2 5.9 47 5.6 SW 22 32 12 17 1020.6 1020.6 0.0
28/10:00am 16.8 11.0 4.2 43 5.9 WSW 24 33 13 18 1020.5 1020.5 0.0
28/09:30am 16.4 12.1 5.4 48 5.3 SW 17 26 9 14 1020.3 1020.3 0.0
28/09:00am 16.2 12.8 6.1 51 4.9 W 13 28 7 15 1020.1 1020.1 0.0
28/08:30am 14.6 12.4 6.2 57 4.0 NNE 7 13 4 7 1019.9 1019.9 0.0
28/08:00am 13.2 10.8 7.0 66 3.0 N 9 11 5 6 1019.5 1019.5 0.0
28/07:30am 11.9 9.3 6.0 67 2.8 NE 9 13 5 7 1019.3 1019.3 0.0
28/07:00am 10.3 7.2 5.7 73 2.1 W 11 19 6 10 1018.9 1018.9 0.0
28/06:30am 9.0 6.1 4.8 75 1.9 WNW 9 13 5 7 1018.7 1018.7 0.0
28/06:00am 8.4 5.5 4.4 76 1.8 NNW 9 11 5 6 1018.3 1018.3 0.0
28/05:30am 8.3 5.7 4.1 75 1.8 NW 7 11 4 6 1017.9 1017.9 0.0
28/05:00am 6.9 4.5 4.2 83 1.2 NNW 6 9 3 5 1017.7 1017.7 0.0
28/04:30am 7.9 6.0 4.8 81 1.4 NE 4 9 2 5 1017.6 1017.6 0.0
28/04:00am 8.5 5.3 4.9 78 1.6 NNW 11 15 6 8 1017.2 1017.2 0.0
28/03:30am 8.9 5.3 5.1 77 1.7 N 13 17 7 9 1017.3 1017.3 0.0
28/03:00am 9.0 5.4 5.0 76 1.8 NW 13 17 7 9 1017.3 1017.3 0.0
28/02:30am 8.5 5.3 4.9 78 1.6 NNW 11 15 6 8 1017.5 1017.5 0.0
28/02:00am 9.3 5.0 5.3 76 1.8 NNW 17 22 9 12 1017.6 1017.6 0.0
28/01:30am 9.4 5.5 5.4 76 1.8 NNW 15 17 8 9 1018.2 1018.2 0.0
28/01:00am 9.0 5.4 5.0 76 1.8 N 13 15 7 8 1018.3 1018.3 0.0
28/12:30am 10.6 7.4 4.9 68 2.6 NNW 11 15 6 8 1018.4 1018.4 0.0
28/12:00am 11.3 8.9 5.4 67 2.7 NNW 7 9 4 5 1018.6 1018.6 0.0
 
Date/Time
EST
Tmp

°C
App
Tmp
°C
Dew
Point
°C
Rel
Hum
%
Delta-T

°C
Wind Press
QNH
hPa
Press
MSL
hPa
Rain
since
9 am
mm
Dir
 
Spd
km/h
Gust
km/h
Spd
kts
Gust
kts
27/11:30pm 10.2 9.1 5.0 70 2.4 CALM 0 0 0 0 1018.6 1018.6 0.0
27/11:00pm 10.9 7.7 5.0 67 2.7 NNW 11 13 6 7 1018.3 1018.3 0.0
27/10:30pm 10.2 7.5 5.8 74 2.0 N 9 13 5 7 1018.2 1018.2 0.0
27/10:00pm 10.6 7.7 6.4 75 2.0 N 11 15 6 8 1018.2 1018.2 0.0
27/09:30pm 12.1 8.7 5.7 65 3.0 NW 13 26 7 14 1018.3 1018.3 0.0
27/09:00pm 12.1 9.4 5.7 65 3.0 NNW 9 11 5 6 1018.5 1018.5 0.0
27/08:30pm 12.9 9.4 5.6 61 3.4 NW 13 20 7 11 1018.4 1018.4 0.0
27/08:00pm 13.3 10.2 5.5 59 3.6 W 11 19 6 10 1018.4 1018.4 0.0
27/07:30pm 14.5 11.5 6.1 57 4.0 NW 11 13 6 7 1018.2 1018.2 0.0
27/07:00pm 14.6 12.1 6.4 58 3.9 NW 9 13 5 7 1017.9 1017.9 0.0
27/06:30pm 15.5 10.4 6.0 53 4.6 W 22 30 12 16 1017.4 1017.4 0.0
27/06:00pm 15.8 9.7 6.5 54 4.5 WSW 28 41 15 22 1017.1 1017.1 0.0
27/05:36pm 16.4 9.7 7.3 55 4.5 WSW 32 50 17 27 1016.7 1016.7 0.0
27/05:30pm 16.8 9.9 7.2 53 4.8 WSW 33 44 18 24 1016.5 1016.5 0.0
27/05:22pm 17.6 12.9 7.6 52 5.1 W 22 44 12 24 1016.2 1016.2 0.0
27/05:00pm 18.2 15.1 7.3 49 5.5 WNW 13 17 7 9 1015.5 1015.5 0.0
27/04:30pm 20.4 16.6 7.7 44 6.5 NW 17 24 9 13 1015.0 1015.0 0.0
27/04:00pm 19.7 15.7 6.8 43 6.5 NW 17 20 9 11 1015.0 1015.0 0.0
27/03:30pm 20.6 17.1 7.2 42 6.8 NNW 15 19 8 10 1015.0 1015.0 0.0
27/03:00pm 20.1 17.2 8.1 46 6.2 WNW 13 20 7 11 1015.2 1015.2 0.0
27/02:30pm 19.9 15.7 8.3 47 6.0 W 20 28 11 15 1015.6 1015.6 0.0
27/02:00pm 20.0 18.1 9.0 49 5.8 WNW 9 17 5 9 1015.9 1015.9 0.0
27/01:30pm 19.1 17.7 10.9 59 4.5 NNE 9 13 5 7 1016.0 1016.0 0.0
27/01:00pm 18.9 17.2 11.2 61 4.2 NE 11 15 6 8 1016.3 1016.3 0.0
27/12:30pm 18.5 17.2 11.1 62 4.0 N 9 13 5 7 1017.0 1017.0 0.0
27/12:00pm 18.8 16.0 11.4 62 4.0 NNW 17 20 9 11 1017.2 1017.2 0.0
27/11:30am 19.9 18.3 11.7 59 4.5 NW 11 19 6 10 1017.6 1017.6 0.0
27/11:00am 18.7 17.6 13.1 70 3.2 N 11 17 6 9 1018.2 1018.2 0.0
27/10:30am 17.7 17.4 14.4 81 1.9 NNW 9 15 5 8 1018.6 1018.6 0.0
27/10:00am 14.8 14.9 14.0 95 0.4 NNE 6 7 3 4 1018.8 1018.8 0.0

Latest Capital City Observations: Canberra | Sydney | Melbourne | Brisbane | Adelaide | Perth | Hobart | Darwin

Other Formats:

Comma delimited format used in spreadsheet applications
http://www.bom.gov.au/fwo/IDN60901/IDN60901.95753.axf

JavaScript Object Notation format (JSON) in row-major order
http://www.bom.gov.au/fwo/IDN60901/IDN60901.95753.json